Terminal Aerodrome Forecast
Issued by NWS

Home | Current Version | Previous Version | Text Only | Print | Product List | Glossary On
Versions: 1 2 3 4 5 6 7 8 9 10 11 12
000
FTUS45 KREV 271157
TAFCXP
TAF
KCXP 271157Z 2712/2812 VRB03KT P6SM SCT080
     FM271900 28008G18KT P6SM VCSH FEW080
     FM280500 35006KT P6SM SCT080=

USA.gov is the U.S. government's official web portal to all federal, state and local government web resources and services.